sensor_id;sensor_type;location;lat;lon;timestamp;P1;durP1;ratioP1;P2;durP2;ratioP2
60098;SDS011;62818;49.394;8.686;2023-09-19T00:00:56;1.93;;;1.10;;
60098;SDS011;62818;49.394;8.686;2023-09-19T00:01:57;4.30;;;1.17;;
60098;SDS011;62818;49.394;8.686;2023-09-19T00:02:58;2.37;;;1.10;;
60098;SDS011;62818;49.394;8.686;2023-09-19T00:03:59;2.97;;;1.08;;
60098;SDS011;62818;49.394;8.686;2023-09-19T00:05:00;3.05;;;0.90;;
60098;SDS011;62818;49.394;8.686;2023-09-19T00:06:03;3.88;;;1.08;;
60098;SDS011;62818;49.394;8.686;2023-09-19T00:07:06;4.13;;;1.02;;
60098;SDS011;62818;49.394;8.686;2023-09-19T00:08:09;4.47;;;1.40;;
60098;SDS011;62818;49.394;8.686;2023-09-19T00:09:09;1.85;;;0.93;;
60098;SDS011;62818;49.394;8.686;2023-09-19T00:10:13;3.58;;;1.20;;
60098;SDS011;62818;49.394;8.686;2023-09-19T00:11:15;2.38;;;1.10;;
60098;SDS011;62818;49.394;8.686;2023-09-19T00:12:15;3.90;;;1.60;;
60098;SDS011;62818;49.394;8.686;2023-09-19T00:13:17;5.07;;;1.20;;
60098;SDS011;62818;49.394;8.686;2023-09-19T00:14:19;4.93;;;1.50;;
60098;SDS011;62818;49.394;8.686;2023-09-19T00:15:19;2.70;;;1.08;;
60098;SDS011;62818;49.394;8.686;2023-09-19T00:16:21;1.33;;;0.82;;
60098;SDS011;62818;49.394;8.686;2023-09-19T00:17:22;3.05;;;0.98;;
60098;SDS011;62818;49.394;8.686;2023-09-19T00:18:22;5.93;;;1.27;;
60098;SDS011;62818;49.394;8.686;2023-09-19T00:19:32;4.43;;;1.00;;
60098;SDS011;62818;49.394;8.686;2023-09-19T00:20:34;2.90;;;1.30;;
60098;SDS011;62818;49.394;8.686;2023-09-19T00:21:36;4.60;;;1.05;;
60098;SDS011;62818;49.394;8.686;2023-09-19T00:22:40;6.03;;;1.50;;
60098;SDS011;62818;49.394;8.686;2023-09-19T00:23:42;3.65;;;1.20;;
60098;SDS011;62818;49.394;8.686;2023-09-19T00:24:43;2.57;;;1.00;;
60098;SDS011;62818;49.394;8.686;2023-09-19T00:25:44;2.78;;;1.13;;
60098;SDS011;62818;49.394;8.686;2023-09-19T00:26:45;5.68;;;1.30;;
60098;SDS011;62818;49.394;8.686;2023-09-19T00:27:47;3.28;;;1.27;;
60098;SDS011;62818;49.394;8.686;2023-09-19T00:28:52;5.60;;;1.30;;
60098;SDS011;62818;49.394;8.686;2023-09-19T00:29:52;5.38;;;1.77;;
60098;SDS011;62818;49.394;8.686;2023-09-19T00:30:53;3.03;;;1.20;;
60098;SDS011;62818;49.394;8.686;2023-09-19T00:31:57;2.97;;;1.25;;
60098;SDS011;62818;49.394;8.686;2023-09-19T00:32:59;2.72;;;1.10;;
60098;SDS011;62818;49.394;8.686;2023-09-19T00:34:01;4.53;;;1.15;;
60098;SDS011;62818;49.394;8.686;2023-09-19T00:35:04;1.85;;;1.02;;
60098;SDS011;62818;49.394;8.686;2023-09-19T00:36:05;3.47;;;1.15;;
60098;SDS011;62818;49.394;8.686;2023-09-19T00:37:06;2.33;;;1.20;;
60098;SDS011;62818;49.394;8.686;2023-09-19T00:38:06;2.87;;;1.33;;
60098;SDS011;62818;49.394;8.686;2023-09-19T00:39:07;3.00;;;1.27;;
60098;SDS011;62818;49.394;8.686;2023-09-19T00:40:08;4.28;;;1.20;;
60098;SDS011;62818;49.394;8.686;2023-09-19T00:41:15;2.67;;;1.10;;
60098;SDS011;62818;49.394;8.686;2023-09-19T00:42:19;3.57;;;1.13;;
60098;SDS011;62818;49.394;8.686;2023-09-19T00:43:21;2.80;;;0.93;;
60098;SDS011;62818;49.394;8.686;2023-09-19T00:44:24;2.92;;;1.30;;
60098;SDS011;62818;49.394;8.686;2023-09-19T00:45:24;4.43;;;1.23;;
60098;SDS011;62818;49.394;8.686;2023-09-19T00:46:25;4.10;;;1.20;;
60098;SDS011;62818;49.394;8.686;2023-09-19T00:47:25;6.03;;;1.23;;
60098;SDS011;62818;49.394;8.686;2023-09-19T00:48:29;3.42;;;1.40;;
60098;SDS011;62818;49.394;8.686;2023-09-19T00:49:31;3.72;;;1.10;;
60098;SDS011;62818;49.394;8.686;2023-09-19T00:51:33;2.67;;;1.15;;
60098;SDS011;62818;49.394;8.686;2023-09-19T00:52:38;2.67;;;1.13;;
60098;SDS011;62818;49.394;8.686;2023-09-19T00:53:41;2.95;;;1.10;;
60098;SDS011;62818;49.394;8.686;2023-09-19T00:54:46;4.22;;;1.25;;
60098;SDS011;62818;49.394;8.686;2023-09-19T00:55:47;1.27;;;1.15;;
60098;SDS011;62818;49.394;8.686;2023-09-19T00:56:49;3.92;;;1.23;;
60098;SDS011;62818;49.394;8.686;2023-09-19T00:57:51;3.30;;;1.33;;
60098;SDS011;62818;49.394;8.686;2023-09-19T00:58:52;4.28;;;1.30;;
60098;SDS011;62818;49.394;8.686;2023-09-19T00:59:53;2.97;;;1.10;;
60098;SDS011;62818;49.394;8.686;2023-09-19T01:00:56;4.32;;;1.10;;
60098;SDS011;62818;49.394;8.686;2023-09-19T01:01:58;4.20;;;1.38;;
60098;SDS011;62818;49.394;8.686;2023-09-19T01:03:00;3.88;;;1.20;;
60098;SDS011;62818;49.394;8.686;2023-09-19T01:04:01;4.47;;;1.60;;
60098;SDS011;62818;49.394;8.686;2023-09-19T01:05:02;4.00;;;1.38;;
60098;SDS011;62818;49.394;8.686;2023-09-19T01:06:06;4.07;;;1.15;;
60098;SDS011;62818;49.394;8.686;2023-09-19T01:07:08;2.67;;;1.10;;
60098;SDS011;62818;49.394;8.686;2023-09-19T01:08:09;9.27;;;1.95;;
60098;SDS011;62818;49.394;8.686;2023-09-19T01:09:13;4.25;;;1.30;;
60098;SDS011;62818;49.394;8.686;2023-09-19T01:10:14;3.47;;;1.53;;
60098;SDS011;62818;49.394;8.686;2023-09-19T01:11:21;2.40;;;0.98;;
60098;SDS011;62818;49.394;8.686;2023-09-19T01:14:33;3.78;;;1.17;;
60098;SDS011;62818;49.394;8.686;2023-09-19T01:17:03;3.15;;;1.05;;
60098;SDS011;62818;49.394;8.686;2023-09-19T01:18:21;4.03;;;1.45;;
60098;SDS011;62818;49.394;8.686;2023-09-19T01:21:32;2.80;;;1.27;;
60098;SDS011;62818;49.394;8.686;2023-09-19T01:24:54;3.45;;;1.50;;
60098;SDS011;62818;49.394;8.686;2023-09-19T01:27:40;4.20;;;1.33;;
60098;SDS011;62818;49.394;8.686;2023-09-19T01:29:23;3.70;;;1.58;;
60098;SDS011;62818;49.394;8.686;2023-09-19T01:30:43;3.58;;;1.40;;
60098;SDS011;62818;49.394;8.686;2023-09-19T01:31:46;6.88;;;1.77;;
60098;SDS011;62818;49.394;8.686;2023-09-19T01:32:50;3.83;;;1.67;;
60098;SDS011;62818;49.394;8.686;2023-09-19T01:35:04;4.57;;;1.77;;
60098;SDS011;62818;49.394;8.686;2023-09-19T01:36:05;4.20;;;1.35;;
60098;SDS011;62818;49.394;8.686;2023-09-19T01:37:05;3.50;;;1.10;;
60098;SDS011;62818;49.394;8.686;2023-09-19T01:38:06;2.53;;;1.27;;
60098;SDS011;62818;49.394;8.686;2023-09-19T01:39:10;4.32;;;1.42;;
60098;SDS011;62818;49.394;8.686;2023-09-19T01:40:14;4.70;;;1.13;;
60098;SDS011;62818;49.394;8.686;2023-09-19T01:42:08;3.05;;;1.52;;
60098;SDS011;62818;49.394;8.686;2023-09-19T01:43:05;2.97;;;1.30;;
60098;SDS011;62818;49.394;8.686;2023-09-19T01:44:40;3.42;;;1.20;;
60098;SDS011;62818;49.394;8.686;2023-09-19T01:46:26;1.95;;;1.05;;
60098;SDS011;62818;49.394;8.686;2023-09-19T01:47:33;2.70;;;1.27;;
60098;SDS011;62818;49.394;8.686;2023-09-19T01:53:13;2.85;;;1.63;;
60098;SDS011;62818;49.394;8.686;2023-09-19T01:54:26;5.13;;;1.27;;
60098;SDS011;62818;49.394;8.686;2023-09-19T01:55:35;5.07;;;1.50;;
60098;SDS011;62818;49.394;8.686;2023-09-19T01:56:56;5.60;;;1.40;;
60098;SDS011;62818;49.394;8.686;2023-09-19T01:58:06;4.00;;;1.55;;
60098;SDS011;62818;49.394;8.686;2023-09-19T01:59:21;2.35;;;1.02;;
60098;SDS011;62818;49.394;8.686;2023-09-19T02:00:28;5.60;;;1.23;;
60098;SDS011;62818;49.394;8.686;2023-09-19T02:01:33;2.97;;;1.20;;
60098;SDS011;62818;49.394;8.686;2023-09-19T02:02:40;6.10;;;1.17;;
60098;SDS011;62818;49.394;8.686;2023-09-19T02:03:45;4.03;;;1.20;;
60098;SDS011;62818;49.394;8.686;2023-09-19T02:04:48;5.13;;;1.25;;
60098;SDS011;62818;49.394;8.686;2023-09-19T02:05:50;5.75;;;1.70;;
60098;SDS011;62818;49.394;8.686;2023-09-19T02:06:53;6.60;;;1.38;;
60098;SDS011;62818;49.394;8.686;2023-09-19T02:07:55;3.28;;;1.25;;
60098;SDS011;62818;49.394;8.686;2023-09-19T02:08:56;3.95;;;1.17;;
60098;SDS011;62818;49.394;8.686;2023-09-19T02:10:00;4.32;;;1.50;;
60098;SDS011;62818;49.394;8.686;2023-09-19T02:11:00;3.92;;;1.25;;
60098;SDS011;62818;49.394;8.686;2023-09-19T02:12:01;2.80;;;1.10;;
60098;SDS011;62818;49.394;8.686;2023-09-19T02:13:03;4.63;;;1.40;;
60098;SDS011;62818;49.394;8.686;2023-09-19T02:14:04;2.70;;;1.20;;
60098;SDS011;62818;49.394;8.686;2023-09-19T02:15:08;3.47;;;1.30;;
60098;SDS011;62818;49.394;8.686;2023-09-19T02:16:09;2.88;;;1.40;;
60098;SDS011;62818;49.394;8.686;2023-09-19T02:18:12;3.25;;;1.73;;
60098;SDS011;62818;49.394;8.686;2023-09-19T02:19:14;4.40;;;1.20;;
60098;SDS011;62818;49.394;8.686;2023-09-19T02:20:15;4.63;;;1.40;;
60098;SDS011;62818;49.394;8.686;2023-09-19T02:22:18;7.80;;;1.42;;
60098;SDS011;62818;49.394;8.686;2023-09-19T02:23:18;2.20;;;1.43;;
60098;SDS011;62818;49.394;8.686;2023-09-19T02:24:19;5.00;;;1.77;;
60098;SDS011;62818;49.394;8.686;2023-09-19T02:25:19;9.03;;;1.60;;
60098;SDS011;62818;49.394;8.686;2023-09-19T02:26:20;3.30;;;1.40;;
60098;SDS011;62818;49.394;8.686;2023-09-19T02:27:21;3.35;;;1.17;;
60098;SDS011;62818;49.394;8.686;2023-09-19T02:28:22;3.93;;;1.67;;
60098;SDS011;62818;49.394;8.686;2023-09-19T02:29:22;2.13;;;1.20;;
60098;SDS011;62818;49.394;8.686;2023-09-19T02:30:25;4.47;;;1.30;;
60098;SDS011;62818;49.394;8.686;2023-09-19T02:31:25;5.43;;;1.30;;
60098;SDS011;62818;49.394;8.686;2023-09-19T02:32:29;5.15;;;1.50;;
60098;SDS011;62818;49.394;8.686;2023-09-19T02:33:31;1.80;;;1.10;;
60098;SDS011;62818;49.394;8.686;2023-09-19T02:34:32;2.85;;;1.50;;
60098;SDS011;62818;49.394;8.686;2023-09-19T02:35:36;8.05;;;1.23;;
60098;SDS011;62818;49.394;8.686;2023-09-19T02:36:36;4.83;;;1.30;;
60098;SDS011;62818;49.394;8.686;2023-09-19T02:37:37;3.27;;;1.33;;
60098;SDS011;62818;49.394;8.686;2023-09-19T02:38:38;2.35;;;1.13;;
60098;SDS011;62818;49.394;8.686;2023-09-19T02:39:38;2.60;;;1.23;;
60098;SDS011;62818;49.394;8.686;2023-09-19T02:40:39;5.17;;;1.20;;
60098;SDS011;62818;49.394;8.686;2023-09-19T02:41:40;4.72;;;1.50;;
60098;SDS011;62818;49.394;8.686;2023-09-19T02:42:42;4.40;;;1.35;;
60098;SDS011;62818;49.394;8.686;2023-09-19T02:43:42;2.42;;;1.48;;
60098;SDS011;62818;49.394;8.686;2023-09-19T02:44:43;6.47;;;1.40;;
60098;SDS011;62818;49.394;8.686;2023-09-19T02:45:46;4.22;;;1.30;;
60098;SDS011;62818;49.394;8.686;2023-09-19T02:46:50;6.28;;;1.40;;
60098;SDS011;62818;49.394;8.686;2023-09-19T02:47:50;7.80;;;1.40;;
60098;SDS011;62818;49.394;8.686;2023-09-19T02:48:51;3.47;;;1.40;;
60098;SDS011;62818;49.394;8.686;2023-09-19T02:49:52;4.73;;;1.40;;
60098;SDS011;62818;49.394;8.686;2023-09-19T02:50:55;5.32;;;1.40;;
60098;SDS011;62818;49.394;8.686;2023-09-19T02:51:56;4.78;;;1.67;;
60098;SDS011;62818;49.394;8.686;2023-09-19T02:52:58;4.10;;;1.50;;
60098;SDS011;62818;49.394;8.686;2023-09-19T02:53:59;2.38;;;1.00;;
60098;SDS011;62818;49.394;8.686;2023-09-19T02:55:00;5.47;;;1.65;;
60098;SDS011;62818;49.394;8.686;2023-09-19T02:56:01;3.13;;;1.50;;
60098;SDS011;62818;49.394;8.686;2023-09-19T02:57:04;3.20;;;1.33;;
60098;SDS011;62818;49.394;8.686;2023-09-19T02:58:06;3.88;;;1.45;;
60098;SDS011;62818;49.394;8.686;2023-09-19T02:59:08;2.47;;;1.10;;
60098;SDS011;62818;49.394;8.686;2023-09-19T03:00:10;4.68;;;1.30;;
60098;SDS011;62818;49.394;8.686;2023-09-19T03:01:12;2.50;;;1.40;;
60098;SDS011;62818;49.394;8.686;2023-09-19T03:02:12;4.13;;;1.20;;
60098;SDS011;62818;49.394;8.686;2023-09-19T03:03:13;2.97;;;1.20;;
60098;SDS011;62818;49.394;8.686;2023-09-19T03:04:16;3.50;;;1.27;;
60098;SDS011;62818;49.394;8.686;2023-09-19T03:05:19;4.15;;;1.75;;
60098;SDS011;62818;49.394;8.686;2023-09-19T03:06:21;3.55;;;1.30;;
60098;SDS011;62818;49.394;8.686;2023-09-19T03:07:24;2.22;;;1.05;;
60098;SDS011;62818;49.394;8.686;2023-09-19T03:08:25;5.10;;;1.77;;
60098;SDS011;62818;49.394;8.686;2023-09-19T03:09:25;6.93;;;2.07;;
60098;SDS011;62818;49.394;8.686;2023-09-19T03:10:26;5.73;;;2.03;;
60098;SDS011;62818;49.394;8.686;2023-09-19T03:11:29;4.63;;;1.30;;
60098;SDS011;62818;49.394;8.686;2023-09-19T03:12:29;2.47;;;1.43;;
60098;SDS011;62818;49.394;8.686;2023-09-19T03:13:30;5.57;;;2.30;;
60098;SDS011;62818;49.394;8.686;2023-09-19T03:14:31;4.80;;;1.83;;
60098;SDS011;62818;49.394;8.686;2023-09-19T03:15:35;3.58;;;1.40;;
60098;SDS011;62818;49.394;8.686;2023-09-19T03:16:38;5.50;;;1.40;;
60098;SDS011;62818;49.394;8.686;2023-09-19T03:17:42;5.40;;;1.47;;
60098;SDS011;62818;49.394;8.686;2023-09-19T03:18:45;4.32;;;1.40;;
60098;SDS011;62818;49.394;8.686;2023-09-19T03:19:47;7.00;;;1.40;;
60098;SDS011;62818;49.394;8.686;2023-09-19T03:20:54;4.30;;;1.20;;
60098;SDS011;62818;49.394;8.686;2023-09-19T03:21:56;5.22;;;1.40;;
60098;SDS011;62818;49.394;8.686;2023-09-19T03:23:58;5.20;;;1.35;;
60098;SDS011;62818;49.394;8.686;2023-09-19T03:24:58;4.13;;;1.70;;
60098;SDS011;62818;49.394;8.686;2023-09-19T03:26:08;4.63;;;1.60;;
60098;SDS011;62818;49.394;8.686;2023-09-19T03:27:09;4.93;;;1.70;;
60098;SDS011;62818;49.394;8.686;2023-09-19T03:28:13;4.47;;;1.30;;
60098;SDS011;62818;49.394;8.686;2023-09-19T03:29:17;3.42;;;1.30;;
60098;SDS011;62818;49.394;8.686;2023-09-19T03:30:18;2.97;;;1.40;;
60098;SDS011;62818;49.394;8.686;2023-09-19T03:31:19;4.55;;;1.25;;
60098;SDS011;62818;49.394;8.686;2023-09-19T03:32:26;2.03;;;1.53;;
60098;SDS011;62818;49.394;8.686;2023-09-19T03:33:26;3.78;;;2.03;;
60098;SDS011;62818;49.394;8.686;2023-09-19T03:34:27;2.70;;;1.57;;
60098;SDS011;62818;49.394;8.686;2023-09-19T03:35:27;2.57;;;1.53;;
60098;SDS011;62818;49.394;8.686;2023-09-19T03:36:28;3.53;;;1.60;;
60098;SDS011;62818;49.394;8.686;2023-09-19T03:37:30;3.22;;;1.40;;
60098;SDS011;62818;49.394;8.686;2023-09-19T03:38:33;4.65;;;1.50;;
60098;SDS011;62818;49.394;8.686;2023-09-19T03:39:36;5.50;;;1.60;;
60098;SDS011;62818;49.394;8.686;2023-09-19T03:40:37;5.00;;;1.70;;
60098;SDS011;62818;49.394;8.686;2023-09-19T03:41:37;3.97;;;1.83;;
60098;SDS011;62818;49.394;8.686;2023-09-19T03:42:39;3.92;;;1.48;;
60098;SDS011;62818;49.394;8.686;2023-09-19T03:43:40;3.05;;;1.55;;
60098;SDS011;62818;49.394;8.686;2023-09-19T03:44:41;3.00;;;1.43;;
60098;SDS011;62818;49.394;8.686;2023-09-19T03:45:41;3.80;;;1.70;;
60098;SDS011;62818;49.394;8.686;2023-09-19T03:46:42;4.27;;;1.40;;
60098;SDS011;62818;49.394;8.686;2023-09-19T03:47:42;6.10;;;1.83;;
60098;SDS011;62818;49.394;8.686;2023-09-19T03:48:43;3.93;;;1.43;;
60098;SDS011;62818;49.394;8.686;2023-09-19T03:49:43;3.80;;;1.47;;
60098;SDS011;62818;49.394;8.686;2023-09-19T03:50:44;4.20;;;1.50;;
60098;SDS011;62818;49.394;8.686;2023-09-19T03:51:45;4.30;;;1.50;;
60098;SDS011;62818;49.394;8.686;2023-09-19T03:52:46;4.15;;;1.67;;
60098;SDS011;62818;49.394;8.686;2023-09-19T03:53:47;2.10;;;1.60;;
60098;SDS011;62818;49.394;8.686;2023-09-19T03:54:49;4.38;;;1.85;;
60098;SDS011;62818;49.394;8.686;2023-09-19T03:55:49;3.57;;;1.20;;
60098;SDS011;62818;49.394;8.686;2023-09-19T03:56:50;6.90;;;1.40;;
60098;SDS011;62818;49.394;8.686;2023-09-19T03:57:50;4.00;;;1.40;;
60098;SDS011;62818;49.394;8.686;2023-09-19T03:58:52;3.88;;;1.48;;
60098;SDS011;62818;49.394;8.686;2023-09-19T03:59:53;3.28;;;1.50;;
60098;SDS011;62818;49.394;8.686;2023-09-19T04:00:57;5.10;;;1.70;;
60098;SDS011;62818;49.394;8.686;2023-09-19T04:01:58;4.97;;;1.60;;
60098;SDS011;62818;49.394;8.686;2023-09-19T04:02:59;9.45;;;1.58;;
60098;SDS011;62818;49.394;8.686;2023-09-19T04:04:02;10.57;;;1.25;;
60098;SDS011;62818;49.394;8.686;2023-09-19T04:05:08;6.07;;;1.52;;
60098;SDS011;62818;49.394;8.686;2023-09-19T04:06:10;4.38;;;1.60;;
60098;SDS011;62818;49.394;8.686;2023-09-19T04:07:11;5.20;;;1.73;;
60098;SDS011;62818;49.394;8.686;2023-09-19T04:08:15;2.80;;;1.60;;
60098;SDS011;62818;49.394;8.686;2023-09-19T04:09:15;3.17;;;1.30;;
60098;SDS011;62818;49.394;8.686;2023-09-19T04:10:16;6.40;;;1.57;;
60098;SDS011;62818;49.394;8.686;2023-09-19T04:11:17;3.33;;;1.60;;
60098;SDS011;62818;49.394;8.686;2023-09-19T04:12:18;6.50;;;1.90;;
60098;SDS011;62818;49.394;8.686;2023-09-19T04:13:18;6.80;;;1.57;;
60098;SDS011;62818;49.394;8.686;2023-09-19T04:14:19;2.83;;;1.60;;
60098;SDS011;62818;49.394;8.686;2023-09-19T04:15:19;3.77;;;1.30;;
60098;SDS011;62818;49.394;8.686;2023-09-19T04:16:22;2.40;;;1.27;;
60098;SDS011;62818;49.394;8.686;2023-09-19T04:17:23;3.22;;;1.30;;
60098;SDS011;62818;49.394;8.686;2023-09-19T04:18:24;4.97;;;1.53;;
60098;SDS011;62818;49.394;8.686;2023-09-19T04:19:25;3.13;;;1.30;;
60098;SDS011;62818;49.394;8.686;2023-09-19T04:20:25;4.60;;;1.60;;
60098;SDS011;62818;49.394;8.686;2023-09-19T04:21:26;7.43;;;1.60;;
60098;SDS011;62818;49.394;8.686;2023-09-19T04:22:28;3.92;;;1.42;;
60098;SDS011;62818;49.394;8.686;2023-09-19T04:23:28;3.30;;;1.50;;
60098;SDS011;62818;49.394;8.686;2023-09-19T04:24:29;4.43;;;1.70;;
60098;SDS011;62818;49.394;8.686;2023-09-19T04:25:30;3.50;;;1.60;;
60098;SDS011;62818;49.394;8.686;2023-09-19T04:26:30;4.13;;;1.77;;
60098;SDS011;62818;49.394;8.686;2023-09-19T04:27:31;6.20;;;1.40;;
60098;SDS011;62818;49.394;8.686;2023-09-19T04:28:32;3.38;;;1.55;;
60098;SDS011;62818;49.394;8.686;2023-09-19T04:29:34;4.50;;;1.52;;
60098;SDS011;62818;49.394;8.686;2023-09-19T04:30:35;3.08;;;1.52;;
60098;SDS011;62818;49.394;8.686;2023-09-19T04:31:35;4.87;;;1.53;;
60098;SDS011;62818;49.394;8.686;2023-09-19T04:32:40;4.60;;;1.70;;
60098;SDS011;62818;49.394;8.686;2023-09-19T04:33:41;3.85;;;2.08;;
60098;SDS011;62818;49.394;8.686;2023-09-19T04:34:43;2.97;;;1.85;;
60098;SDS011;62818;49.394;8.686;2023-09-19T04:35:44;3.93;;;1.93;;
60098;SDS011;62818;49.394;8.686;2023-09-19T04:36:44;9.40;;;2.23;;
60098;SDS011;62818;49.394;8.686;2023-09-19T04:37:45;5.83;;;2.20;;
60098;SDS011;62818;49.394;8.686;2023-09-19T04:38:45;3.00;;;2.30;;
60098;SDS011;62818;49.394;8.686;2023-09-19T04:39:46;3.87;;;1.67;;
60098;SDS011;62818;49.394;8.686;2023-09-19T04:40:46;3.90;;;1.73;;
60098;SDS011;62818;49.394;8.686;2023-09-19T04:41:47;7.05;;;1.65;;
60098;SDS011;62818;49.394;8.686;2023-09-19T04:42:54;3.93;;;1.50;;
60098;SDS011;62818;49.394;8.686;2023-09-19T04:44:00;8.65;;;2.08;;
60098;SDS011;62818;49.394;8.686;2023-09-19T04:45:00;6.78;;;1.73;;
60098;SDS011;62818;49.394;8.686;2023-09-19T04:46:01;4.47;;;1.60;;
60098;SDS011;62818;49.394;8.686;2023-09-19T04:47:01;5.43;;;1.67;;
60098;SDS011;62818;49.394;8.686;2023-09-19T04:48:02;4.53;;;1.97;;
60098;SDS011;62818;49.394;8.686;2023-09-19T04:49:02;4.93;;;2.20;;
60098;SDS011;62818;49.394;8.686;2023-09-19T04:50:03;4.93;;;1.90;;
60098;SDS011;62818;49.394;8.686;2023-09-19T04:51:11;6.50;;;1.80;;
60098;SDS011;62818;49.394;8.686;2023-09-19T04:52:12;7.93;;;2.17;;
60098;SDS011;62818;49.394;8.686;2023-09-19T04:53:15;3.83;;;1.90;;
60098;SDS011;62818;49.394;8.686;2023-09-19T04:54:17;7.20;;;1.80;;
60098;SDS011;62818;49.394;8.686;2023-09-19T04:55:18;4.47;;;1.80;;
60098;SDS011;62818;49.394;8.686;2023-09-19T04:56:19;3.70;;;2.05;;
60098;SDS011;62818;49.394;8.686;2023-09-19T04:57:21;7.38;;;1.85;;
60098;SDS011;62818;49.394;8.686;2023-09-19T04:58:22;6.30;;;1.83;;
60098;SDS011;62818;49.394;8.686;2023-09-19T04:59:22;3.05;;;1.35;;
60098;SDS011;62818;49.394;8.686;2023-09-19T05:00:23;5.35;;;2.03;;
60098;SDS011;62818;49.394;8.686;2023-09-19T05:01:24;4.15;;;1.48;;
60098;SDS011;62818;49.394;8.686;2023-09-19T05:03:30;4.22;;;1.70;;
60098;SDS011;62818;49.394;8.686;2023-09-19T05:04:31;4.70;;;1.77;;
60098;SDS011;62818;49.394;8.686;2023-09-19T05:05:32;5.25;;;2.00;;
60098;SDS011;62818;49.394;8.686;2023-09-19T05:06:34;5.05;;;1.80;;
60098;SDS011;62818;49.394;8.686;2023-09-19T05:07:35;3.80;;;1.83;;
60098;SDS011;62818;49.394;8.686;2023-09-19T05:08:36;9.60;;;2.05;;
60098;SDS011;62818;49.394;8.686;2023-09-19T05:09:36;4.33;;;1.90;;
60098;SDS011;62818;49.394;8.686;2023-09-19T05:10:37;5.53;;;2.10;;
60098;SDS011;62818;49.394;8.686;2023-09-19T05:11:37;3.63;;;1.70;;
60098;SDS011;62818;49.394;8.686;2023-09-19T05:12:39;6.15;;;2.17;;
60098;SDS011;62818;49.394;8.686;2023-09-19T05:13:40;6.07;;;2.53;;
60098;SDS011;62818;49.394;8.686;2023-09-19T05:14:40;4.70;;;1.60;;
60098;SDS011;62818;49.394;8.686;2023-09-19T05:15:41;5.67;;;1.87;;
60098;SDS011;62818;49.394;8.686;2023-09-19T05:16:41;8.07;;;2.00;;
60098;SDS011;62818;49.394;8.686;2023-09-19T05:17:47;5.32;;;2.05;;
60098;SDS011;62818;49.394;8.686;2023-09-19T05:18:54;5.90;;;2.20;;
60098;SDS011;62818;49.394;8.686;2023-09-19T05:19:55;5.17;;;2.30;;
60098;SDS011;62818;49.394;8.686;2023-09-19T05:20:55;4.70;;;2.30;;
60098;SDS011;62818;49.394;8.686;2023-09-19T05:21:56;3.17;;;2.00;;
60098;SDS011;62818;49.394;8.686;2023-09-19T05:23:00;5.63;;;2.00;;
60098;SDS011;62818;49.394;8.686;2023-09-19T05:24:07;6.43;;;2.25;;
60098;SDS011;62818;49.394;8.686;2023-09-19T05:25:11;6.50;;;2.47;;
60098;SDS011;62818;49.394;8.686;2023-09-19T05:26:16;7.53;;;2.15;;
60098;SDS011;62818;49.394;8.686;2023-09-19T05:27:16;7.73;;;2.63;;
60098;SDS011;62818;49.394;8.686;2023-09-19T05:28:17;10.05;;;2.80;;
60098;SDS011;62818;49.394;8.686;2023-09-19T05:29:18;5.30;;;2.30;;
60098;SDS011;62818;49.394;8.686;2023-09-19T05:30:18;5.50;;;2.60;;
60098;SDS011;62818;49.394;8.686;2023-09-19T05:31:20;9.57;;;2.53;;
60098;SDS011;62818;49.394;8.686;2023-09-19T05:32:20;6.97;;;2.60;;
60098;SDS011;62818;49.394;8.686;2023-09-19T05:33:23;6.80;;;3.03;;
60098;SDS011;62818;49.394;8.686;2023-09-19T05:34:24;6.60;;;3.17;;
60098;SDS011;62818;49.394;8.686;2023-09-19T05:35:28;10.25;;;3.47;;
60098;SDS011;62818;49.394;8.686;2023-09-19T05:36:28;11.63;;;3.00;;
60098;SDS011;62818;49.394;8.686;2023-09-19T05:37:29;7.05;;;3.10;;
60098;SDS011;62818;49.394;8.686;2023-09-19T05:38:30;11.93;;;3.33;;
60098;SDS011;62818;49.394;8.686;2023-09-19T05:39:30;10.90;;;3.33;;
60098;SDS011;62818;49.394;8.686;2023-09-19T05:40:31;8.63;;;2.63;;
60098;SDS011;62818;49.394;8.686;2023-09-19T05:41:32;7.27;;;2.53;;
60098;SDS011;62818;49.394;8.686;2023-09-19T05:42:32;5.77;;;2.50;;
60098;SDS011;62818;49.394;8.686;2023-09-19T05:43:33;7.30;;;2.50;;
60098;SDS011;62818;49.394;8.686;2023-09-19T05:44:33;7.73;;;3.13;;
60098;SDS011;62818;49.394;8.686;2023-09-19T05:45:34;6.97;;;2.90;;
60098;SDS011;62818;49.394;8.686;2023-09-19T05:46:36;11.88;;;2.80;;
60098;SDS011;62818;49.394;8.686;2023-09-19T05:47:36;7.63;;;2.50;;
60098;SDS011;62818;49.394;8.686;2023-09-19T05:48:37;8.43;;;2.53;;
60098;SDS011;62818;49.394;8.686;2023-09-19T05:49:39;5.82;;;2.45;;
60098;SDS011;62818;49.394;8.686;2023-09-19T05:50:41;7.38;;;2.50;;
60098;SDS011;62818;49.394;8.686;2023-09-19T05:51:44;5.97;;;2.72;;
60098;SDS011;62818;49.394;8.686;2023-09-19T05:52:51;15.10;;;2.58;;
60098;SDS011;62818;49.394;8.686;2023-09-19T05:53:53;6.63;;;2.60;;
60098;SDS011;62818;49.394;8.686;2023-09-19T05:54:54;6.82;;;3.22;;
60098;SDS011;62818;49.394;8.686;2023-09-19T05:56:57;5.95;;;2.47;;
60098;SDS011;62818;49.394;8.686;2023-09-19T05:57:58;4.93;;;2.22;;
60098;SDS011;62818;49.394;8.686;2023-09-19T05:58:59;9.32;;;2.70;;
60098;SDS011;62818;49.394;8.686;2023-09-19T06:00:00;5.47;;;2.17;;
60098;SDS011;62818;49.394;8.686;2023-09-19T06:01:00;7.37;;;2.37;;
60098;SDS011;62818;49.394;8.686;2023-09-19T06:02:01;6.65;;;1.70;;
60098;SDS011;62818;49.394;8.686;2023-09-19T06:03:05;7.20;;;2.50;;
60098;SDS011;62818;49.394;8.686;2023-09-19T06:04:06;5.57;;;2.30;;
60098;SDS011;62818;49.394;8.686;2023-09-19T06:05:06;5.53;;;2.13;;
60098;SDS011;62818;49.394;8.686;2023-09-19T06:06:10;4.55;;;1.90;;
60098;SDS011;62818;49.394;8.686;2023-09-19T06:07:10;7.87;;;2.03;;
60098;SDS011;62818;49.394;8.686;2023-09-19T06:08:12;4.68;;;2.38;;
60098;SDS011;62818;49.394;8.686;2023-09-19T06:09:12;12.10;;;3.10;;
60098;SDS011;62818;49.394;8.686;2023-09-19T06:10:13;8.52;;;2.72;;
60098;SDS011;62818;49.394;8.686;2023-09-19T06:11:14;11.40;;;2.50;;
60098;SDS011;62818;49.394;8.686;2023-09-19T06:12:15;7.93;;;2.20;;
60098;SDS011;62818;49.394;8.686;2023-09-19T06:13:17;4.80;;;1.65;;
60098;SDS011;62818;49.394;8.686;2023-09-19T06:14:18;4.50;;;1.98;;
60098;SDS011;62818;49.394;8.686;2023-09-19T06:15:19;9.10;;;2.70;;
60098;SDS011;62818;49.394;8.686;2023-09-19T06:16:21;9.93;;;2.30;;
60098;SDS011;62818;49.394;8.686;2023-09-19T06:17:22;16.77;;;3.53;;
60098;SDS011;62818;49.394;8.686;2023-09-19T06:18:22;6.67;;;2.40;;
60098;SDS011;62818;49.394;8.686;2023-09-19T06:19:26;12.05;;;2.55;;
60098;SDS011;62818;49.394;8.686;2023-09-19T06:20:26;11.80;;;2.80;;
60098;SDS011;62818;49.394;8.686;2023-09-19T06:21:27;9.97;;;2.30;;
60098;SDS011;62818;49.394;8.686;2023-09-19T06:22:27;3.90;;;2.20;;
60098;SDS011;62818;49.394;8.686;2023-09-19T06:23:28;10.80;;;2.30;;
60098;SDS011;62818;49.394;8.686;2023-09-19T06:24:29;4.97;;;1.50;;
60098;SDS011;62818;49.394;8.686;2023-09-19T06:25:30;5.78;;;2.10;;
60098;SDS011;62818;49.394;8.686;2023-09-19T06:26:31;13.73;;;2.83;;
60098;SDS011;62818;49.394;8.686;2023-09-19T06:27:35;7.22;;;2.10;;
60098;SDS011;62818;49.394;8.686;2023-09-19T06:28:36;5.57;;;1.95;;
60098;SDS011;62818;49.394;8.686;2023-09-19T06:29:37;7.77;;;2.17;;
60098;SDS011;62818;49.394;8.686;2023-09-19T06:30:37;5.63;;;2.47;;
60098;SDS011;62818;49.394;8.686;2023-09-19T06:31:41;6.05;;;1.90;;
60098;SDS011;62818;49.394;8.686;2023-09-19T06:32:42;8.87;;;2.20;;
60098;SDS011;62818;49.394;8.686;2023-09-19T06:33:46;5.72;;;2.15;;
60098;SDS011;62818;49.394;8.686;2023-09-19T06:34:51;9.27;;;2.33;;
60098;SDS011;62818;49.394;8.686;2023-09-19T06:35:54;7.65;;;2.05;;
60098;SDS011;62818;49.394;8.686;2023-09-19T06:36:59;6.35;;;2.00;;
60098;SDS011;62818;49.394;8.686;2023-09-19T06:38:03;7.78;;;1.98;;
60098;SDS011;62818;49.394;8.686;2023-09-19T06:39:05;6.78;;;2.08;;